Time;durP1;ratioP1;P1;durP2;ratioP2;P2;SDS_P1;SDS_P2;PMS_P1;PMS_P2;Temp;Humidity;BMP_temperature;BMP_pressure;BME280_temperature;BME280_humidity;BME280_pressure;Samples;Min_cycle;Max_cycle;Signal;HPM_P1;HPM_P2
2024/01/18 00:00:06;;;;;;;37.33;25.55;;;6.80;96.60;;;;;;5041215;28;20026;-77
2024/01/18 00:02:33;;;;;;;37.08;23.40;;;6.70;97.40;;;;;;5046701;28;20434;-71
2024/01/18 00:05:00;;;;;;;39.70;23.55;;;6.80;97.40;;;;;;5048484;28;20511;-75
2024/01/18 00:07:29;;;;;;;36.00;24.30;;;6.80;97.10;;;;;;5045856;28;20041;-75
2024/01/18 00:09:57;;;;;;;37.28;23.23;;;6.80;97.10;;;;;;5043917;28;20033;-73
2024/01/18 00:12:24;;;;;;;222.60;112.05;;;6.90;96.90;;;;;;5039444;28;20111;-74
2024/01/18 00:14:52;;;;;;;104.25;58.47;;;6.90;97.00;;;;;;5014249;28;20044;-76
2024/01/18 00:17:19;;;;;;;44.10;27.15;;;7.10;97.10;;;;;;5029151;28;20056;-73
2024/01/18 00:19:47;;;;;;;93.95;53.78;;;6.90;96.80;;;;;;5045738;28;20045;-73
2024/01/18 00:22:14;;;;;;;44.92;27.83;;;7.00;97.20;;;;;;5046109;28;20029;-76
2024/01/18 00:24:41;;;;;;;37.25;24.35;;;6.80;96.90;;;;;;5028073;28;20044;-74
2024/01/18 00:27:09;;;;;;;34.03;23.73;;;6.70;97.10;;;;;;5047457;28;20036;-75
2024/01/18 00:29:36;;;;;;;34.25;22.23;;;6.70;97.20;;;;;;5046392;28;20099;-76
2024/01/18 00:32:04;;;;;;;43.10;27.45;;;6.70;97.50;;;;;;5046571;28;20033;-74
2024/01/18 00:34:32;;;;;;;43.20;26.25;;;6.70;97.30;;;;;;5046181;28;20060;-74
2024/01/18 00:36:59;;;;;;;36.05;23.25;;;6.70;97.40;;;;;;5027571;28;20156;-72
2024/01/18 00:39:26;;;;;;;41.22;23.33;;;6.60;97.30;;;;;;5044408;28;20906;-73
2024/01/18 00:41:54;;;;;;;34.28;23.20;;;6.60;97.50;;;;;;5038758;28;20041;-75
2024/01/18 00:44:21;;;;;;;37.65;23.75;;;6.50;97.30;;;;;;5028293;28;20040;-74
2024/01/18 00:46:48;;;;;;;34.83;22.90;;;6.50;97.60;;;;;;5046538;28;20041;-80
2024/01/18 00:49:16;;;;;;;34.95;23.50;;;6.30;97.90;;;;;;5047169;28;20041;-77
2024/01/18 00:51:43;;;;;;;41.47;25.83;;;6.40;97.90;;;;;;5048432;28;20033;-76
2024/01/18 00:54:11;;;;;;;45.33;27.02;;;6.40;97.70;;;;;;5052118;28;20074;-77
2024/01/18 00:56:38;;;;;;;45.65;27.98;;;6.40;97.60;;;;;;5053585;28;20375;-75
2024/01/18 00:59:06;;;;;;;48.72;28.40;;;6.40;97.80;;;;;;5049827;28;20087;-78
2024/01/18 01:01:35;;;;;;;39.80;27.15;;;6.40;97.80;;;;;;5051993;28;20044;-83
2024/01/18 01:04:02;;;;;;;49.03;26.05;;;6.40;97.80;;;;;;5048194;28;20068;-82
2024/01/18 01:06:30;;;;;;;40.03;26.17;;;6.40;97.70;;;;;;5052746;28;20675;-74
2024/01/18 01:08:57;;;;;;;40.83;26.50;;;6.50;97.70;;;;;;5052535;28;20068;-75
2024/01/18 01:11:24;;;;;;;42.00;25.92;;;6.50;97.60;;;;;;5030296;28;20092;-77
2024/01/18 01:13:51;;;;;;;37.72;24.92;;;6.50;97.60;;;;;;5052787;28;20130;-75
2024/01/18 01:16:20;;;;;;;39.38;25.67;;;6.50;97.60;;;;;;5049335;28;20120;-80
2024/01/18 01:18:48;;;;;;;38.75;25.35;;;6.30;97.60;;;;;;5035087;28;20094;-74
2024/01/18 01:21:15;;;;;;;38.83;25.65;;;6.10;98.30;;;;;;5051129;28;20079;-84
2024/01/18 01:23:48;;;;;;;38.60;26.00;;;5.90;99.20;;;;;;5049338;28;20396;-76
2024/01/18 01:26:16;;;;;;;38.10;23.25;;;5.80;99.70;;;;;;5049708;28;20022;-76
2024/01/18 01:28:43;;;;;;;33.58;22.70;;;5.70;99.70;;;;;;5050360;28;20033;-78
2024/01/18 01:31:11;;;;;;;33.35;22.83;;;5.90;99.80;;;;;;5046882;28;20047;-76
2024/01/18 01:33:41;;;;;;;29.92;21.27;;;5.90;99.70;;;;;;5034281;28;20519;-88
2024/01/18 01:36:09;;;;;;;35.88;21.33;;;5.90;99.90;;;;;;5052565;28;20116;-83
2024/01/18 01:38:36;;;;;;;35.03;21.60;;;5.90;99.90;;;;;;5052963;28;20074;-76
2024/01/18 01:41:05;;;;;;;30.25;20.85;;;5.90;99.80;;;;;;5053017;28;20095;-79
2024/01/18 01:43:32;;;;;;;34.90;21.70;;;6.00;99.80;;;;;;5052121;28;20052;-78
2024/01/18 01:46:00;;;;;;;30.98;21.33;;;6.00;99.50;;;;;;5052317;28;20033;-80
2024/01/18 01:48:27;;;;;;;36.63;23.40;;;6.10;99.70;;;;;;5050938;28;20222;-78
2024/01/18 01:50:55;;;;;;;38.15;22.70;;;6.20;99.40;;;;;;5048637;28;20033;-77
2024/01/18 01:53:22;;;;;;;31.10;22.63;;;6.30;99.00;;;;;;5033871;28;20090;-88
2024/01/18 01:55:50;;;;;;;36.47;22.35;;;6.20;99.10;;;;;;5051358;28;20044;-77
2024/01/18 01:58:19;;;;;;;38.65;23.27;;;6.30;99.00;;;;;;5051956;28;20365;-76
2024/01/18 02:00:46;;;;;;;32.88;23.23;;;6.30;98.90;;;;;;5050741;28;20400;-77
2024/01/18 02:03:14;;;;;;;33.50;23.80;;;6.30;98.80;;;;;;5026951;28;20032;-79
2024/01/18 02:05:42;;;;;;;37.05;23.38;;;6.10;98.80;;;;;;5047095;28;20120;-77
2024/01/18 02:08:10;;;;;;;35.08;24.45;;;6.20;99.10;;;;;;5031797;28;20473;-77
2024/01/18 02:10:37;;;;;;;40.75;23.17;;;6.20;99.00;;;;;;5047952;28;20113;-76
2024/01/18 02:13:06;;;;;;;33.42;22.50;;;6.20;98.90;;;;;;5046713;28;20601;-76
2024/01/18 02:15:34;;;;;;;39.53;21.92;;;6.20;99.10;;;;;;5050136;28;20349;-74
2024/01/18 02:18:02;;;;;;;35.20;21.90;;;5.90;99.80;;;;;;5048021;28;20048;-77
2024/01/18 02:20:29;;;;;;;35.33;22.30;;;5.90;99.90;;;;;;5048793;28;20033;-76
2024/01/18 02:22:57;;;;;;;37.83;21.60;;;5.80;99.90;;;;;;5049668;28;20111;-76
2024/01/18 02:25:27;;;;;;;33.67;22.63;;;6.00;99.90;;;;;;5030897;28;20039;-79
2024/01/18 02:27:55;;;;;;;36.50;21.98;;;6.10;99.90;;;;;;5050404;28;20036;-78
2024/01/18 02:30:23;;;;;;;37.95;23.00;;;6.30;99.90;;;;;;5051389;28;20452;-79
2024/01/18 02:32:51;;;;;;;33.75;22.77;;;6.20;99.60;;;;;;5033482;28;20033;-81
2024/01/18 02:35:20;;;;;;;38.70;21.88;;;6.20;99.90;;;;;;5050156;28;20059;-75
2024/01/18 02:37:48;;;;;;;31.63;21.10;;;6.20;99.80;;;;;;5051136;28;20041;-75
2024/01/18 02:40:15;;;;;;;32.92;23.05;;;6.30;99.80;;;;;;5033503;28;20099;-76
2024/01/18 02:42:43;;;;;;;38.15;22.40;;;6.20;99.60;;;;;;5048240;28;20037;-82
2024/01/18 02:45:11;;;;;;;33.83;21.10;;;5.90;99.90;;;;;;5047221;28;20388;-78
2024/01/18 02:47:38;;;;;;;33.83;21.80;;;6.00;99.90;;;;;;5047544;28;20443;-77
2024/01/18 02:50:06;;;;;;;35.28;21.88;;;5.80;99.90;;;;;;5048075;28;20033;-79
2024/01/18 02:52:33;;;;;;;36.00;21.48;;;5.90;99.90;;;;;;5046496;28;20029;-79
2024/01/18 02:55:01;;;;;;;30.08;21.05;;;5.90;99.90;;;;;;5046545;28;20039;-79
2024/01/18 02:57:28;;;;;;;35.63;21.17;;;5.70;99.90;;;;;;5029876;28;20037;-86
2024/01/18 02:59:56;;;;;;;35.33;20.73;;;5.90;99.90;;;;;;5046577;28;20063;-82
2024/01/18 03:02:23;;;;;;;30.70;19.92;;;6.10;99.90;;;;;;5050647;28;20025;-84
2024/01/18 03:04:51;;;;;;;30.30;19.90;;;6.00;99.90;;;;;;5047697;28;20548;-82
2024/01/18 03:07:19;;;;;;;34.30;21.35;;;5.70;99.90;;;;;;5044061;28;20102;-82
2024/01/18 03:09:47;;;;;;;29.75;20.42;;;5.70;99.90;;;;;;5046814;28;20068;-78
2024/01/18 03:12:15;;;;;;;36.85;20.90;;;5.60;99.90;;;;;;5029970;28;20075;-80
2024/01/18 03:14:42;;;;;;;29.65;21.58;;;5.70;99.90;;;;;;5048526;28;20036;-79
2024/01/18 03:17:10;;;;;;;28.77;19.42;;;5.80;99.90;;;;;;5050411;28;20033;-81
2024/01/18 03:19:37;;;;;;;27.85;19.10;;;5.60;99.90;;;;;;5051948;28;20064;-77
2024/01/18 03:22:04;;;;;;;35.72;20.35;;;5.50;99.90;;;;;;5046097;28;20036;-77
2024/01/18 03:24:31;;;;;;;28.55;21.00;;;5.50;99.90;;;;;;5048917;28;20384;-85
2024/01/18 03:26:59;;;;;;;32.13;20.85;;;5.70;99.90;;;;;;5051837;28;20433;-78
2024/01/18 03:29:43;;;;;;;26.98;17.38;;;5.90;99.90;;;;;;5049623;28;20358;-77
2024/01/18 03:32:12;;;;;;;28.58;18.35;;;6.00;99.90;;;;;;5049097;28;20029;-77
2024/01/18 03:34:39;;;;;;;28.45;19.13;;;6.00;99.90;;;;;;5031295;28;20044;-78
2024/01/18 03:37:07;;;;;;;27.98;19.65;;;6.20;99.90;;;;;;5044956;28;20035;-78
2024/01/18 03:39:35;;;;;;;31.05;18.92;;;6.30;99.90;;;;;;5047509;28;20033;-87
2024/01/18 03:42:03;;;;;;;30.50;18.40;;;6.30;99.90;;;;;;5032669;28;20041;-82
2024/01/18 03:44:34;;;;;;;27.67;19.25;;;6.40;99.90;;;;;;5050895;28;20033;-89
2024/01/18 03:47:01;;;;;;;;;;;6.40;99.90;;;;;;5031801;28;20136;-94
2024/01/18 03:49:28;;;;;;;31.85;17.13;;;6.40;99.90;;;;;;5048168;28;19982;-77
2024/01/18 03:51:56;;;;;;;23.40;17.67;;;6.50;99.90;;;;;;5044500;28;20030;-84
2024/01/18 03:54:23;;;;;;;28.42;18.60;;;6.30;99.90;;;;;;5046236;28;20503;-79
2024/01/18 03:56:50;;;;;;;27.30;18.90;;;6.10;99.90;;;;;;5051631;28;20032;-77
2024/01/18 03:59:20;;;;;;;28.35;19.20;;;5.90;99.90;;;;;;5048587;28;20090;-78
2024/01/18 04:02:04;;;;;;;25.17;19.00;;;5.90;99.90;;;;;;5039901;28;20075;-86
2024/01/18 04:04:32;;;;;;;31.15;19.27;;;6.20;99.90;;;;;;5032386;28;20403;-77
2024/01/18 04:06:59;;;;;;;32.33;20.50;;;6.00;99.90;;;;;;5030290;28;20168;-82
2024/01/18 04:09:26;;;;;;;29.98;19.27;;;6.10;99.90;;;;;;5046936;28;20401;-74
2024/01/18 04:11:54;;;;;;;26.00;19.30;;;6.20;99.90;;;;;;5046043;28;20048;-75
2024/01/18 04:14:21;;;;;;;26.98;18.35;;;6.10;99.90;;;;;;5028036;28;20388;-80
2024/01/18 04:16:48;;;;;;;26.85;18.98;;;6.10;99.90;;;;;;5047022;28;20427;-74
2024/01/18 04:19:16;;;;;;;25.75;17.65;;;6.10;99.90;;;;;;5030204;28;20029;-82
2024/01/18 04:21:43;;;;;;;29.45;18.58;;;6.10;99.90;;;;;;5049229;28;20080;-80
2024/01/18 04:24:10;;;;;;;28.25;17.98;;;5.90;99.90;;;;;;5046530;28;20094;-74
2024/01/18 04:26:39;;;;;;;30.13;19.80;;;6.00;99.90;;;;;;5054193;28;20037;-77
2024/01/18 04:29:06;;;;;;;27.83;18.70;;;6.00;99.90;;;;;;5055945;28;20119;-77
2024/01/18 04:31:33;;;;;;;27.30;18.75;;;6.00;99.90;;;;;;5038696;28;20111;-77
2024/01/18 04:34:20;;;;;;;28.23;18.35;;;6.10;99.90;;;;;;5050166;28;20052;-77
2024/01/18 04:36:47;;;;;;;29.10;19.15;;;6.00;99.90;;;;;;5038943;28;20443;-80
2024/01/18 04:39:32;;;;;;;30.33;18.10;;;5.90;99.90;;;;;;5052861;28;20029;-80
2024/01/18 04:41:59;;;;;;;29.17;18.83;;;5.90;99.90;;;;;;5036619;28;20453;-79
2024/01/18 04:44:27;;;;;;;34.42;19.27;;;6.10;99.90;;;;;;5055728;28;20040;-75
2024/01/18 04:46:54;;;;;;;34.15;18.27;;;6.20;99.90;;;;;;5053118;28;20044;-75
2024/01/18 04:49:21;;;;;;;26.05;18.48;;;6.40;99.90;;;;;;5032069;28;20043;-75
2024/01/18 04:51:49;;;;;;;27.55;17.70;;;6.50;99.90;;;;;;5054496;28;20041;-75
2024/01/18 04:54:17;;;;;;;22.63;17.55;;;6.50;99.90;;;;;;5052161;28;20489;-76
2024/01/18 04:56:45;;;;;;;25.30;17.23;;;6.30;99.90;;;;;;5037115;28;20073;-77
2024/01/18 04:59:12;;;;;;;28.20;18.35;;;6.20;99.90;;;;;;5055294;28;20071;-77
2024/01/18 05:01:40;;;;;;;25.05;17.38;;;6.30;99.90;;;;;;5035470;28;20033;-78
2024/01/18 05:04:08;;;;;;;24.38;16.80;;;6.30;99.90;;;;;;5055600;28;20460;-78
2024/01/18 05:06:35;;;;;;;23.60;16.35;;;6.20;99.90;;;;;;5055782;28;20407;-76
2024/01/18 05:09:03;;;;;;;24.88;16.40;;;6.40;99.90;;;;;;5050666;28;20042;-76
2024/01/18 05:11:47;;;;;;;25.00;17.02;;;6.50;99.90;;;;;;5054216;28;20047;-76
2024/01/18 05:14:15;;;;;;;29.10;18.02;;;6.40;99.90;;;;;;5055234;28;20052;-78
2024/01/18 05:16:43;;;;;;;27.58;17.75;;;6.50;99.90;;;;;;5022084;28;20987;-75
2024/01/18 05:19:11;;;;;;;23.75;17.05;;;6.30;99.90;;;;;;5054639;28;20040;-76
2024/01/18 05:21:38;;;;;;;28.60;18.13;;;6.30;99.90;;;;;;5055586;28;20482;-77
2024/01/18 05:24:05;;;;;;;25.13;17.55;;;6.40;99.90;;;;;;5052514;28;20035;-76
2024/01/18 05:26:33;;;;;;;30.27;17.52;;;6.40;99.90;;;;;;5037664;28;20045;-76
2024/01/18 05:29:00;;;;;;;28.98;17.25;;;6.20;99.90;;;;;;5043641;28;20040;-76
2024/01/18 05:31:27;;;;;;;27.35;17.20;;;6.10;99.90;;;;;;5055688;28;20120;-75
2024/01/18 05:33:56;;;;;;;26.23;17.20;;;6.10;99.90;;;;;;5055389;28;20040;-76
2024/01/18 05:36:23;;;;;;;24.75;16.25;;;6.20;99.90;;;;;;5056383;28;20115;-78
2024/01/18 05:38:51;;;;;;;26.42;17.02;;;6.00;99.90;;;;;;5051724;28;20132;-77
2024/01/18 05:41:18;;;;;;;26.77;16.55;;;6.30;99.90;;;;;;5054490;28;20044;-77
2024/01/18 05:43:45;;;;;;;25.63;17.50;;;6.30;99.90;;;;;;5051384;28;20036;-81
2024/01/18 05:46:13;;;;;;;22.45;16.92;;;6.30;99.90;;;;;;5052773;28;20033;-82
2024/01/18 05:48:40;;;;;;;23.40;16.98;;;6.50;99.90;;;;;;5048094;28;20120;-74
2024/01/18 05:51:07;;;;;;;27.92;16.92;;;6.60;99.90;;;;;;5052487;28;20044;-78
2024/01/18 05:53:35;;;;;;;24.92;16.42;;;6.70;99.90;;;;;;5048543;28;20025;-76
2024/01/18 05:56:03;;;;;;;22.17;15.32;;;6.80;99.90;;;;;;5049610;28;20041;-76
2024/01/18 05:58:31;;;;;;;21.42;15.52;;;6.90;99.90;;;;;;5030790;28;20091;-76
2024/01/18 06:01:00;;;;;;;30.08;15.40;;;6.90;99.90;;;;;;5048276;28;20036;-77
2024/01/18 06:03:28;;;;;;;25.73;15.80;;;7.00;99.90;;;;;;5045561;28;20040;-75
2024/01/18 06:05:58;;;;;;;22.67;15.40;;;7.10;99.90;;;;;;5050173;28;20048;-81
2024/01/18 06:08:26;;;;;;;23.00;15.95;;;7.10;99.90;;;;;;5034583;28;20037;-77
2024/01/18 06:10:54;;;;;;;19.08;14.45;;;6.80;99.90;;;;;;5049021;28;20053;-75
2024/01/18 06:13:21;;;;;;;22.05;14.60;;;6.90;99.90;;;;;;5047552;28;20052;-76
2024/01/18 06:15:50;;;;;;;22.83;16.00;;;7.00;99.90;;;;;;5048391;28;20423;-77
2024/01/18 06:18:17;;;;;;;23.85;15.68;;;7.10;99.90;;;;;;5051971;28;20036;-78
2024/01/18 06:20:45;;;;;;;27.55;16.27;;;7.10;99.90;;;;;;5051704;28;20108;-78
2024/01/18 06:23:12;;;;;;;32.10;16.83;;;7.10;99.90;;;;;;5052364;28;20033;-76
2024/01/18 06:25:39;;;;;;;28.05;16.77;;;7.20;99.90;;;;;;5048648;28;20456;-81
2024/01/18 06:28:06;;;;;;;24.67;16.60;;;7.20;99.90;;;;;;5052238;28;20159;-76
2024/01/18 06:30:34;;;;;;;29.35;16.95;;;7.20;99.90;;;;;;5049608;28;20044;-76
2024/01/18 06:33:01;;;;;;;23.88;16.35;;;6.90;99.90;;;;;;5042823;28;20485;-80
2024/01/18 06:35:28;;;;;;;22.98;16.08;;;7.00;99.90;;;;;;5050461;28;20037;-77
2024/01/18 06:37:55;;;;;;;25.23;17.25;;;6.80;99.90;;;;;;5051886;28;20061;-77
2024/01/18 06:40:23;;;;;;;24.00;16.50;;;6.80;99.90;;;;;;5050234;28;20439;-78
2024/01/18 06:42:50;;;;;;;29.38;17.75;;;6.90;99.90;;;;;;5051895;28;20133;-76
2024/01/18 06:45:17;;;;;;;28.88;18.00;;;7.00;99.90;;;;;;5050697;28;20040;-77
2024/01/18 06:47:44;;;;;;;26.65;17.45;;;7.00;99.90;;;;;;5051699;28;20033;-80
2024/01/18 06:50:13;;;;;;;32.85;19.52;;;7.10;99.90;;;;;;5049340;28;20124;-77
2024/01/18 06:52:40;;;;;;;32.20;20.75;;;7.10;99.90;;;;;;5051160;28;20079;-78
2024/01/18 06:55:11;;;;;;;42.67;25.83;;;7.10;99.90;;;;;;5047766;28;20044;-77
2024/01/18 06:57:39;;;;;;;39.72;26.60;;;6.90;99.90;;;;;;5050885;28;20033;-77
2024/01/18 07:00:07;;;;;;;41.15;29.33;;;6.90;99.90;;;;;;5028857;28;20038;-77
2024/01/18 07:02:34;;;;;;;57.88;35.13;;;7.00;99.90;;;;;;5016439;28;20342;-76
2024/01/18 07:05:01;;;;;;;36.78;24.58;;;7.00;99.90;;;;;;5046684;28;20041;-78
2024/01/18 07:07:29;;;;;;;34.90;21.25;;;6.90;99.90;;;;;;5050476;28;20459;-76
2024/01/18 07:09:56;;;;;;;27.27;19.30;;;6.90;99.90;;;;;;5050297;28;20047;-77
2024/01/18 07:12:24;;;;;;;28.70;18.88;;;6.70;99.90;;;;;;5049634;28;20036;-77
2024/01/18 07:14:52;;;;;;;29.48;18.83;;;6.70;99.90;;;;;;5050899;28;20404;-77
2024/01/18 07:17:20;;;;;;;31.88;19.10;;;6.80;99.90;;;;;;5046212;28;20061;-76
2024/01/18 07:19:47;;;;;;;28.08;18.85;;;6.80;99.90;;;;;;5050602;28;20033;-76
2024/01/18 07:22:15;;;;;;;26.95;18.00;;;6.90;99.90;;;;;;5043213;28;20072;-77
2024/01/18 07:24:42;;;;;;;29.83;17.58;;;7.00;99.90;;;;;;5046900;28;20087;-77
2024/01/18 07:27:13;;;;;;;32.83;18.88;;;7.20;99.90;;;;;;5050669;28;20037;-77
2024/01/18 07:29:40;;;;;;;28.45;17.90;;;7.30;99.90;;;;;;5048238;28;20118;-78
2024/01/18 07:32:08;;;;;;;28.50;17.70;;;7.30;99.90;;;;;;5051778;28;20044;-77
2024/01/18 07:34:36;;;;;;;31.88;18.10;;;7.30;99.90;;;;;;5050928;28;20385;-76
2024/01/18 07:37:03;;;;;;;33.97;19.23;;;7.40;99.90;;;;;;5047255;28;20051;-75
2024/01/18 07:39:35;;;;;;;31.73;20.10;;;7.50;99.90;;;;;;5046518;28;20033;-77
2024/01/18 07:42:02;;;;;;;32.28;20.60;;;7.50;99.90;;;;;;5050658;28;20061;-78
2024/01/18 07:44:29;;;;;;;39.67;21.38;;;7.50;99.90;;;;;;5048988;28;20025;-77
2024/01/18 07:46:57;;;;;;;35.25;20.90;;;7.40;99.90;;;;;;5048839;28;20064;-77
2024/01/18 07:49:25;;;;;;;31.08;20.45;;;7.10;99.90;;;;;;5050368;28;20087;-77
2024/01/18 07:51:55;;;;;;;32.83;21.88;;;6.90;99.90;;;;;;5050012;28;20381;-79
2024/01/18 07:54:22;;;;;;;34.45;21.65;;;6.90;99.90;;;;;;5015580;28;20033;-81
2024/01/18 07:56:50;;;;;;;34.17;22.20;;;6.90;99.90;;;;;;5051198;28;20037;-78
2024/01/18 07:59:17;;;;;;;39.47;24.17;;;6.90;99.90;;;;;;5049340;28;20129;-80
2024/01/18 08:01:45;;;;;;;38.17;25.48;;;7.20;99.90;;;;;;5049582;28;20048;-82
2024/01/18 08:04:13;;;;;;;34.40;23.17;;;7.30;99.90;;;;;;5049261;28;20033;-78
2024/01/18 08:06:42;;;;;;;37.85;23.60;;;7.50;99.90;;;;;;5049783;28;20479;-88
2024/01/18 08:09:11;;;;;;;34.23;23.07;;;7.70;99.90;;;;;;5050219;28;20108;-78
2024/01/18 08:11:39;;;;;;;37.72;22.73;;;7.90;99.90;;;;;;5049331;28;20080;-77
2024/01/18 08:14:06;;;;;;;34.25;23.15;;;8.10;99.90;;;;;;5045656;28;20877;-79
2024/01/18 08:16:33;;;;;;;38.38;23.30;;;8.10;99.90;;;;;;5045273;28;20094;-79
2024/01/18 08:19:01;;;;;;;34.10;22.00;;;8.50;99.90;;;;;;5046445;28;20036;-79
2024/01/18 08:21:28;;;;;;;32.78;21.13;;;8.00;99.90;;;;;;5049152;28;20096;-81
2024/01/18 08:23:55;;;;;;;36.88;22.42;;;8.00;99.90;;;;;;5044917;28;20373;-78
2024/01/18 08:26:23;;;;;;;27.40;20.40;;;8.00;99.90;;;;;;5031345;28;20396;-79
2024/01/18 08:28:50;;;;;;;29.70;20.63;;;8.10;99.90;;;;;;5031973;28;20413;-81
2024/01/18 08:31:17;;;;;;;26.60;18.25;;;8.10;99.90;;;;;;5029453;28;20044;-78
2024/01/18 08:33:45;;;;;;;31.17;19.55;;;8.20;99.90;;;;;;5048221;28;20055;-79
2024/01/18 08:36:15;;;;;;;30.00;18.52;;;8.20;99.90;;;;;;5031390;28;20033;-78
2024/01/18 08:38:42;;;;;;;27.85;18.83;;;8.40;99.90;;;;;;5049153;28;20037;-80
2024/01/18 08:41:10;;;;;;;31.08;19.65;;;8.40;99.90;;;;;;5049429;28;20029;-78
2024/01/18 08:43:37;;;;;;;30.42;20.90;;;8.50;99.90;;;;;;5048447;28;20049;-76
2024/01/18 08:46:07;;;;;;;31.88;20.38;;;8.30;99.90;;;;;;5044303;28;20499;-76
2024/01/18 08:48:35;;;;;;;30.75;22.02;;;8.50;99.90;;;;;;5046378;28;20044;-77
2024/01/18 08:51:03;;;;;;;32.30;19.05;;;8.80;99.90;;;;;;5027894;28;20032;-78
2024/01/18 08:53:31;;;;;;;29.88;19.15;;;8.90;99.90;;;;;;5047070;28;20380;-80
2024/01/18 08:55:58;;;;;;;29.58;19.80;;;8.70;99.90;;;;;;5030799;28;20511;-74
2024/01/18 08:58:26;;;;;;;38.45;23.60;;;8.60;99.90;;;;;;5029989;28;20642;-75
2024/01/18 09:00:54;;;;;;;36.08;23.52;;;8.80;99.90;;;;;;5044760;28;20049;-77
2024/01/18 09:03:21;;;;;;;48.42;28.17;;;8.90;99.90;;;;;;5044969;28;20057;-76
2024/01/18 09:05:50;;;;;;;95.10;50.90;;;9.00;99.90;;;;;;5046121;28;20047;-77
2024/01/18 09:08:17;;;;;;;54.67;34.22;;;9.20;99.90;;;;;;5044875;28;20459;-76
2024/01/18 09:10:45;;;;;;;36.72;22.90;;;9.20;99.90;;;;;;5044343;28;20048;-78
2024/01/18 09:13:12;;;;;;;31.38;19.70;;;9.70;99.90;;;;;;5040070;28;20029;-76
2024/01/18 09:15:40;;;;;;;25.63;18.48;;;10.00;99.90;;;;;;5034150;28;20044;-78
2024/01/18 09:18:08;;;;;;;30.23;17.92;;;10.20;99.90;;;;;;5045377;28;20376;-76
2024/01/18 09:20:37;;;;;;;26.88;17.88;;;10.60;99.90;;;;;;5048262;28;20041;-83
2024/01/18 09:23:04;;;;;;;28.77;17.40;;;10.90;99.90;;;;;;5031397;28;20056;-76
2024/01/18 09:25:41;;;;;;;22.00;15.73;;;11.10;99.90;;;;;;5045552;28;20467;-75
2024/01/18 09:28:09;;;;;;;23.30;16.43;;;10.90;99.90;;;;;;5049656;28;20028;-76
2024/01/18 09:30:37;;;;;;;21.27;15.45;;;11.10;99.90;;;;;;5032056;28;20106;-79
2024/01/18 09:33:10;;;;;;;24.45;15.57;;;11.40;99.90;;;;;;5045110;28;20428;-75
2024/01/18 09:35:40;;;;;;;23.85;15.70;;;11.60;99.90;;;;;;5052502;28;20036;-77
2024/01/18 09:38:10;;;;;;;24.80;15.65;;;11.90;99.90;;;;;;5048761;28;20036;-76
2024/01/18 09:40:39;;;;;;;24.40;14.60;;;12.00;99.90;;;;;;5030908;28;20048;-77
2024/01/18 09:43:10;;;;;;;24.10;14.63;;;11.90;99.90;;;;;;5046868;28;20305;-77
2024/01/18 09:45:46;;;;;;;25.48;16.92;;;11.50;99.90;;;;;;5047462;28;20346;-79
2024/01/18 09:48:14;;;;;;;29.88;22.10;;;11.80;99.90;;;;;;5047908;28;20033;-81
2024/01/18 09:50:45;;;;;;;30.98;19.33;;;12.70;99.90;;;;;;5046645;28;20415;-76
2024/01/18 09:53:13;;;;;;;23.63;16.10;;;12.80;99.90;;;;;;5051062;28;20070;-73
2024/01/18 09:55:41;;;;;;;21.30;14.70;;;12.80;99.90;;;;;;5027079;28;20052;-75
2024/01/18 09:58:12;;;;;;;21.55;13.95;;;12.50;99.90;;;;;;5048932;28;20178;-76
2024/01/18 10:00:47;;;;;;;19.65;14.25;;;12.30;99.90;;;;;;5037024;28;20620;-76
2024/01/18 10:03:14;;;;;;;19.10;13.40;;;12.80;99.90;;;;;;5043120;28;20033;-75
2024/01/18 10:05:43;;;;;;;18.70;13.13;;;13.10;99.90;;;;;;5031180;28;20050;-77
2024/01/18 10:08:11;;;;;;;19.48;12.70;;;13.00;99.90;;;;;;5047586;28;20037;-80
2024/01/18 10:10:38;;;;;;;25.67;14.55;;;13.20;99.90;;;;;;5048986;28;20045;-74
2024/01/18 10:13:10;;;;;;;22.13;13.30;;;13.00;99.90;;;;;;5045498;28;20060;-80
2024/01/18 10:15:37;;;;;;;22.52;14.25;;;12.40;99.90;;;;;;5040773;28;20386;-79
2024/01/18 10:18:06;;;;;;;21.52;13.63;;;12.00;99.90;;;;;;5044955;28;20038;-73
2024/01/18 10:20:34;;;;;;;20.70;13.82;;;12.40;99.90;;;;;;5046854;28;20775;-79
2024/01/18 10:23:01;;;;;;;19.67;12.93;;;12.40;99.90;;;;;;5048018;28;20116;-73
2024/01/18 10:25:32;;;;;;;24.10;14.70;;;12.90;99.90;;;;;;5030466;28;20065;-75
2024/01/18 10:27:59;;;;;;;25.77;14.50;;;13.20;99.90;;;;;;5029087;28;20041;-78
2024/01/18 10:30:27;;;;;;;47.33;25.27;;;13.60;99.90;;;;;;5046485;28;20421;-76
2024/01/18 10:32:54;;;;;;;83.85;49.70;;;14.50;99.90;;;;;;5029053;28;20539;-79
2024/01/18 10:35:24;;;;;;;26.88;17.25;;;15.20;99.30;;;;;;5048776;28;20037;-81
2024/01/18 10:38:06;;;;;;;19.90;14.18;;;14.40;99.30;;;;;;5044464;28;20041;-78
2024/01/18 10:40:36;;;;;;;21.17;14.38;;;13.80;99.90;;;;;;5049457;28;20400;-79
2024/01/18 10:43:07;;;;;;;19.85;14.13;;;14.10;99.90;;;;;;5043158;28;20098;-78
2024/01/18 10:45:36;;;;;;;27.52;15.27;;;14.60;99.60;;;;;;5042306;28;20418;-77
2024/01/18 10:48:04;;;;;;;19.48;13.23;;;14.50;99.50;;;;;;5050709;28;20039;-80
2024/01/18 10:50:33;;;;;;;21.83;14.20;;;14.50;99.50;;;;;;5029658;28;20480;-78
2024/01/18 10:53:01;;;;;;;24.42;13.32;;;14.40;99.50;;;;;;5047185;28;20045;-76
2024/01/18 10:55:28;;;;;;;21.30;13.98;;;14.30;99.60;;;;;;5045808;28;20032;-77
2024/01/18 10:57:56;;;;;;;20.20;12.95;;;14.50;99.50;;;;;;5049694;28;20041;-77
2024/01/18 11:00:23;;;;;;;21.70;13.35;;;14.90;99.20;;;;;;5048373;28;20554;-77
2024/01/18 11:02:51;;;;;;;22.05;13.88;;;14.70;98.90;;;;;;5047291;28;20036;-79
2024/01/18 11:05:20;;;;;;;18.83;13.85;;;15.00;98.60;;;;;;5048093;28;20365;-80
2024/01/18 11:07:49;;;;;;;21.88;13.15;;;14.90;98.50;;;;;;5030843;28;20048;-76
2024/01/18 11:10:17;;;;;;;25.40;14.27;;;15.30;98.30;;;;;;5044904;28;20120;-76
2024/01/18 11:12:49;;;;;;;18.48;12.27;;;15.90;98.40;;;;;;5031404;28;20115;-78
2024/01/18 11:15:20;;;;;;;22.95;13.95;;;17.90;96.50;;;;;;5040828;28;20043;-76
2024/01/18 11:18:00;;;;;;;24.15;12.20;;;18.60;93.40;;;;;;5044558;28;20175;-77
2024/01/18 11:20:27;;;;;;;23.20;14.35;;;19.30;92.50;;;;;;5044710;28;20069;-76
2024/01/18 11:22:58;;;;;;;18.90;11.82;;;20.10;90.60;;;;;;5046614;28;20041;-77
2024/01/18 11:25:30;;;;;;;15.57;10.70;;;20.40;90.70;;;;;;5046237;28;20379;-76
2024/01/18 11:27:59;;;;;;;22.15;13.50;;;22.70;85.10;;;;;;5040115;28;20036;-79
2024/01/18 11:30:38;;;;;;;19.77;13.87;;;19.80;87.20;;;;;;5029512;28;20092;-77
2024/01/18 11:33:08;;;;;;;24.58;15.15;;;17.00;92.40;;;;;;5038640;28;20041;-77
2024/01/18 11:35:35;;;;;;;22.30;15.07;;;14.90;96.10;;;;;;5038071;28;20039;-76
2024/01/18 11:38:20;;;;;;;24.88;16.15;;;13.90;97.80;;;;;;5048204;28;20029;-78
2024/01/18 11:40:53;;;;;;;23.40;15.55;;;13.70;98.50;;;;;;5043459;28;20121;-76
2024/01/18 11:43:21;;;;;;;25.13;16.02;;;13.60;99.00;;;;;;5049760;28;20043;-78
2024/01/18 11:45:52;;;;;;;21.63;15.85;;;13.80;98.90;;;;;;5047043;28;20033;-77
2024/01/18 11:48:19;;;;;;;26.52;15.00;;;13.60;99.30;;;;;;5049918;28;20439;-78
2024/01/18 11:50:47;;;;;;;27.63;15.90;;;13.60;99.30;;;;;;5041037;28;20041;-79
2024/01/18 11:53:15;;;;;;;27.30;15.63;;;14.50;98.70;;;;;;5030753;28;20041;-77
2024/01/18 11:55:46;;;;;;;28.98;16.02;;;15.30;96.90;;;;;;5048329;28;20133;-79
2024/01/18 11:58:14;;;;;;;26.75;17.48;;;15.50;96.20;;;;;;5045352;28;20041;-76
2024/01/18 12:00:42;;;;;;;26.08;17.23;;;15.30;96.60;;;;;;5043318;28;20044;-75
2024/01/18 12:03:12;;;;;;;25.88;17.48;;;14.80;96.60;;;;;;5042717;28;20044;-78
2024/01/18 12:05:40;;;;;;;26.77;17.38;;;14.40;98.00;;;;;;5047836;28;20132;-76
2024/01/18 12:08:08;;;;;;;25.33;17.10;;;14.50;97.70;;;;;;5046969;28;20037;-76
2024/01/18 12:10:37;;;;;;;28.08;18.70;;;13.70;99.10;;;;;;5045143;28;20068;-72
2024/01/18 12:13:04;;;;;;;28.27;17.60;;;13.50;99.70;;;;;;5043805;28;20387;-76
2024/01/18 12:15:33;;;;;;;24.77;16.23;;;13.80;99.60;;;;;;5046151;28;20033;-76
2024/01/18 12:18:00;;;;;;;26.70;16.25;;;13.40;99.90;;;;;;5043571;28;20032;-74
2024/01/18 12:20:27;;;;;;;26.63;18.23;;;13.10;99.90;;;;;;5037859;28;20037;-78
2024/01/18 12:22:55;;;;;;;24.88;17.48;;;13.00;99.90;;;;;;5040998;28;20103;-74
2024/01/18 12:25:23;;;;;;;29.08;17.33;;;13.00;99.90;;;;;;5043616;28;20112;-74
2024/01/18 12:27:50;;;;;;;27.30;16.80;;;13.00;99.90;;;;;;5045999;28;20142;-74
2024/01/18 12:30:18;;;;;;;21.85;15.80;;;13.30;99.90;;;;;;5043155;28;20091;-76
2024/01/18 12:32:48;;;;;;;26.90;16.08;;;13.20;99.90;;;;;;5047911;28;20044;-73
2024/01/18 12:35:15;;;;;;;28.45;17.42;;;13.70;99.90;;;;;;5046214;28;20112;-74
2024/01/18 12:37:42;;;;;;;31.65;17.08;;;13.20;99.90;;;;;;5044955;28;20071;-78